sensor_id;sensor_type;location;lat;lon;timestamp;P1;durP1;ratioP1;P2;durP2;ratioP2
47860;SDS011;33620;52.340;5.984;2022-10-28T00:00:43;23.00;;;11.00;;
47860;SDS011;33620;52.340;5.984;2022-10-28T00:03:09;24.77;;;11.20;;
47860;SDS011;33620;52.340;5.984;2022-10-28T00:05:34;21.73;;;10.23;;
47860;SDS011;33620;52.340;5.984;2022-10-28T00:08:00;22.40;;;11.43;;
47860;SDS011;33620;52.340;5.984;2022-10-28T00:10:25;22.90;;;11.10;;
47860;SDS011;33620;52.340;5.984;2022-10-28T00:12:50;22.02;;;11.27;;
47860;SDS011;33620;52.340;5.984;2022-10-28T00:15:16;22.20;;;10.77;;
47860;SDS011;33620;52.340;5.984;2022-10-28T00:17:41;22.52;;;10.45;;
47860;SDS011;33620;52.340;5.984;2022-10-28T00:20:07;20.58;;;10.68;;
47860;SDS011;33620;52.340;5.984;2022-10-28T00:22:32;22.90;;;10.35;;
47860;SDS011;33620;52.340;5.984;2022-10-28T00:24:58;23.55;;;11.15;;
47860;SDS011;33620;52.340;5.984;2022-10-28T00:27:23;24.98;;;11.38;;
47860;SDS011;33620;52.340;5.984;2022-10-28T00:29:48;28.55;;;12.70;;
47860;SDS011;33620;52.340;5.984;2022-10-28T00:32:14;23.83;;;10.85;;
47860;SDS011;33620;52.340;5.984;2022-10-28T00:34:39;20.83;;;10.95;;
47860;SDS011;33620;52.340;5.984;2022-10-28T00:37:04;23.27;;;12.43;;
47860;SDS011;33620;52.340;5.984;2022-10-28T00:39:30;27.27;;;14.18;;
47860;SDS011;33620;52.340;5.984;2022-10-28T00:41:56;24.20;;;11.95;;
47860;SDS011;33620;52.340;5.984;2022-10-28T00:47:49;27.33;;;11.43;;
47860;SDS011;33620;52.340;5.984;2022-10-28T00:52:41;23.30;;;11.32;;
47860;SDS011;33620;52.340;5.984;2022-10-28T00:55:13;22.20;;;10.75;;
47860;SDS011;33620;52.340;5.984;2022-10-28T00:57:40;24.50;;;12.02;;
47860;SDS011;33620;52.340;5.984;2022-10-28T01:00:06;22.30;;;11.57;;
47860;SDS011;33620;52.340;5.984;2022-10-28T01:02:35;22.63;;;11.63;;
47860;SDS011;33620;52.340;5.984;2022-10-28T01:05:07;20.63;;;10.98;;
47860;SDS011;33620;52.340;5.984;2022-10-28T01:07:33;29.83;;;13.30;;
47860;SDS011;33620;52.340;5.984;2022-10-28T01:09:58;23.30;;;11.73;;
47860;SDS011;33620;52.340;5.984;2022-10-28T01:12:29;23.25;;;12.85;;
47860;SDS011;33620;52.340;5.984;2022-10-28T01:23:03;19.48;;;10.63;;
47860;SDS011;33620;52.340;5.984;2022-10-28T01:25:58;23.83;;;11.68;;
47860;SDS011;33620;52.340;5.984;2022-10-28T01:28:56;28.33;;;13.32;;
47860;SDS011;33620;52.340;5.984;2022-10-28T01:36:40;25.20;;;11.77;;
47860;SDS011;33620;52.340;5.984;2022-10-28T01:42:14;25.63;;;12.73;;
47860;SDS011;33620;52.340;5.984;2022-10-28T01:45:02;31.65;;;14.05;;
47860;SDS011;33620;52.340;5.984;2022-10-28T01:50:21;29.33;;;13.40;;
47860;SDS011;33620;52.340;5.984;2022-10-28T01:52:54;28.85;;;14.38;;
47860;SDS011;33620;52.340;5.984;2022-10-28T01:55:28;21.75;;;11.73;;
47860;SDS011;33620;52.340;5.984;2022-10-28T01:57:59;24.52;;;11.88;;
47860;SDS011;33620;52.340;5.984;2022-10-28T02:00:25;23.67;;;11.98;;
47860;SDS011;33620;52.340;5.984;2022-10-28T02:02:51;24.85;;;13.85;;
47860;SDS011;33620;52.340;5.984;2022-10-28T02:10:40;24.85;;;12.40;;
47860;SDS011;33620;52.340;5.984;2022-10-28T02:13:13;24.17;;;12.88;;
47860;SDS011;33620;52.340;5.984;2022-10-28T02:20:54;27.67;;;13.68;;
47860;SDS011;33620;52.340;5.984;2022-10-28T02:26:06;26.42;;;12.93;;
47860;SDS011;33620;52.340;5.984;2022-10-28T02:28:45;24.88;;;13.07;;
47860;SDS011;33620;52.340;5.984;2022-10-28T02:31:23;26.30;;;12.98;;
47860;SDS011;33620;52.340;5.984;2022-10-28T02:33:51;24.02;;;12.20;;
47860;SDS011;33620;52.340;5.984;2022-10-28T02:36:21;21.98;;;11.60;;
47860;SDS011;33620;52.340;5.984;2022-10-28T02:38:49;22.65;;;11.80;;
47860;SDS011;33620;52.340;5.984;2022-10-28T02:41:26;25.58;;;13.00;;
47860;SDS011;33620;52.340;5.984;2022-10-28T02:43:58;25.20;;;11.52;;
47860;SDS011;33620;52.340;5.984;2022-10-28T02:46:27;24.35;;;12.48;;
47860;SDS011;33620;52.340;5.984;2022-10-28T02:49:00;23.50;;;12.35;;
47860;SDS011;33620;52.340;5.984;2022-10-28T02:51:29;25.83;;;13.15;;
47860;SDS011;33620;52.340;5.984;2022-10-28T02:54:14;25.35;;;12.98;;
47860;SDS011;33620;52.340;5.984;2022-10-28T02:56:48;24.70;;;13.02;;
47860;SDS011;33620;52.340;5.984;2022-10-28T02:59:18;25.65;;;12.63;;
47860;SDS011;33620;52.340;5.984;2022-10-28T03:01:44;25.70;;;13.63;;
47860;SDS011;33620;52.340;5.984;2022-10-28T03:04:09;27.15;;;13.68;;
47860;SDS011;33620;52.340;5.984;2022-10-28T03:06:35;24.42;;;13.13;;
47860;SDS011;33620;52.340;5.984;2022-10-28T03:09:00;28.20;;;14.18;;
47860;SDS011;33620;52.340;5.984;2022-10-28T03:11:25;31.38;;;15.38;;
47860;SDS011;33620;52.340;5.984;2022-10-28T03:13:51;28.50;;;14.00;;
47860;SDS011;33620;52.340;5.984;2022-10-28T03:16:16;25.48;;;12.93;;
47860;SDS011;33620;52.340;5.984;2022-10-28T03:18:42;28.70;;;14.88;;
47860;SDS011;33620;52.340;5.984;2022-10-28T03:21:07;33.55;;;16.42;;
47860;SDS011;33620;52.340;5.984;2022-10-28T03:23:32;26.85;;;13.15;;
47860;SDS011;33620;52.340;5.984;2022-10-28T03:25:58;26.75;;;13.25;;
47860;SDS011;33620;52.340;5.984;2022-10-28T03:28:23;25.30;;;12.55;;
47860;SDS011;33620;52.340;5.984;2022-10-28T03:30:49;27.08;;;13.70;;
47860;SDS011;33620;52.340;5.984;2022-10-28T03:33:14;29.15;;;13.88;;
47860;SDS011;33620;52.340;5.984;2022-10-28T03:35:39;28.25;;;15.20;;
47860;SDS011;33620;52.340;5.984;2022-10-28T03:38:05;24.88;;;12.93;;
47860;SDS011;33620;52.340;5.984;2022-10-28T03:40:30;29.98;;;14.77;;
47860;SDS011;33620;52.340;5.984;2022-10-28T03:42:56;28.27;;;15.45;;
47860;SDS011;33620;52.340;5.984;2022-10-28T03:45:21;24.98;;;12.27;;
47860;SDS011;33620;52.340;5.984;2022-10-28T03:47:46;25.40;;;13.20;;
47860;SDS011;33620;52.340;5.984;2022-10-28T03:50:12;27.25;;;13.77;;
47860;SDS011;33620;52.340;5.984;2022-10-28T03:52:37;26.38;;;12.43;;
47860;SDS011;33620;52.340;5.984;2022-10-28T03:55:02;22.75;;;12.32;;
47860;SDS011;33620;52.340;5.984;2022-10-28T03:57:29;30.67;;;12.98;;
47860;SDS011;33620;52.340;5.984;2022-10-28T03:59:55;26.52;;;13.48;;
47860;SDS011;33620;52.340;5.984;2022-10-28T04:02:20;26.35;;;13.82;;
47860;SDS011;33620;52.340;5.984;2022-10-28T04:04:46;26.60;;;13.68;;
47860;SDS011;33620;52.340;5.984;2022-10-28T04:07:11;26.83;;;13.15;;
47860;SDS011;33620;52.340;5.984;2022-10-28T04:09:36;23.98;;;12.07;;
47860;SDS011;33620;52.340;5.984;2022-10-28T04:12:02;27.20;;;15.40;;
47860;SDS011;33620;52.340;5.984;2022-10-28T04:14:27;23.67;;;12.60;;
47860;SDS011;33620;52.340;5.984;2022-10-28T04:16:53;26.27;;;14.20;;
47860;SDS011;33620;52.340;5.984;2022-10-28T04:19:18;23.73;;;12.43;;
47860;SDS011;33620;52.340;5.984;2022-10-28T04:21:43;25.58;;;13.13;;
47860;SDS011;33620;52.340;5.984;2022-10-28T04:24:09;22.05;;;11.80;;
47860;SDS011;33620;52.340;5.984;2022-10-28T04:26:34;24.95;;;11.77;;
47860;SDS011;33620;52.340;5.984;2022-10-28T04:28:59;26.70;;;12.60;;
47860;SDS011;33620;52.340;5.984;2022-10-28T04:31:25;26.65;;;12.23;;
47860;SDS011;33620;52.340;5.984;2022-10-28T04:33:50;23.08;;;12.20;;
47860;SDS011;33620;52.340;5.984;2022-10-28T04:36:16;24.92;;;12.70;;
47860;SDS011;33620;52.340;5.984;2022-10-28T04:38:41;25.02;;;13.43;;
47860;SDS011;33620;52.340;5.984;2022-10-28T04:41:07;24.08;;;11.82;;
47860;SDS011;33620;52.340;5.984;2022-10-28T04:43:36;24.50;;;13.35;;
47860;SDS011;33620;52.340;5.984;2022-10-28T04:46:01;20.85;;;12.02;;
47860;SDS011;33620;52.340;5.984;2022-10-28T04:48:29;21.98;;;10.75;;
47860;SDS011;33620;52.340;5.984;2022-10-28T04:50:58;23.48;;;10.77;;
47860;SDS011;33620;52.340;5.984;2022-10-28T04:53:23;23.33;;;11.25;;
47860;SDS011;33620;52.340;5.984;2022-10-28T04:55:49;20.23;;;10.88;;
47860;SDS011;33620;52.340;5.984;2022-10-28T04:58:14;22.98;;;11.52;;
47860;SDS011;33620;52.340;5.984;2022-10-28T05:00:40;28.23;;;13.88;;
47860;SDS011;33620;52.340;5.984;2022-10-28T05:03:05;24.45;;;12.65;;
47860;SDS011;33620;52.340;5.984;2022-10-28T05:05:31;26.73;;;12.75;;
47860;SDS011;33620;52.340;5.984;2022-10-28T05:07:56;26.25;;;13.25;;
47860;SDS011;33620;52.340;5.984;2022-10-28T05:10:21;26.35;;;12.45;;
47860;SDS011;33620;52.340;5.984;2022-10-28T05:12:47;26.02;;;14.18;;
47860;SDS011;33620;52.340;5.984;2022-10-28T05:15:13;28.55;;;13.73;;
47860;SDS011;33620;52.340;5.984;2022-10-28T05:17:42;25.58;;;13.15;;
47860;SDS011;33620;52.340;5.984;2022-10-28T05:20:09;26.90;;;13.98;;
47860;SDS011;33620;52.340;5.984;2022-10-28T05:22:36;25.95;;;13.25;;
47860;SDS011;33620;52.340;5.984;2022-10-28T05:25:02;28.25;;;13.18;;
47860;SDS011;33620;52.340;5.984;2022-10-28T05:27:28;26.95;;;11.90;;
47860;SDS011;33620;52.340;5.984;2022-10-28T05:29:54;22.88;;;12.02;;
47860;SDS011;33620;52.340;5.984;2022-10-28T05:32:19;25.05;;;11.43;;
47860;SDS011;33620;52.340;5.984;2022-10-28T05:34:44;23.42;;;12.73;;
47860;SDS011;33620;52.340;5.984;2022-10-28T05:37:10;24.75;;;11.98;;
47860;SDS011;33620;52.340;5.984;2022-10-28T05:39:35;24.40;;;12.82;;
47860;SDS011;33620;52.340;5.984;2022-10-28T05:42:00;23.27;;;11.25;;
47860;SDS011;33620;52.340;5.984;2022-10-28T05:44:26;28.58;;;14.57;;
47860;SDS011;33620;52.340;5.984;2022-10-28T05:46:51;21.40;;;12.02;;
47860;SDS011;33620;52.340;5.984;2022-10-28T05:49:18;25.17;;;11.35;;
47860;SDS011;33620;52.340;5.984;2022-10-28T05:51:44;24.17;;;12.80;;
47860;SDS011;33620;52.340;5.984;2022-10-28T05:54:10;22.35;;;11.50;;
47860;SDS011;33620;52.340;5.984;2022-10-28T05:56:36;25.60;;;11.63;;
47860;SDS011;33620;52.340;5.984;2022-10-28T05:59:01;22.63;;;10.73;;
47860;SDS011;33620;52.340;5.984;2022-10-28T06:01:27;26.50;;;11.70;;
47860;SDS011;33620;52.340;5.984;2022-10-28T06:03:52;28.33;;;13.13;;
47860;SDS011;33620;52.340;5.984;2022-10-28T06:06:18;29.55;;;13.55;;
47860;SDS011;33620;52.340;5.984;2022-10-28T06:08:43;23.20;;;12.13;;
47860;SDS011;33620;52.340;5.984;2022-10-28T06:11:08;24.80;;;11.38;;
47860;SDS011;33620;52.340;5.984;2022-10-28T06:13:34;26.02;;;11.73;;
47860;SDS011;33620;52.340;5.984;2022-10-28T06:15:59;23.60;;;11.05;;
47860;SDS011;33620;52.340;5.984;2022-10-28T06:18:24;24.85;;;12.45;;
47860;SDS011;33620;52.340;5.984;2022-10-28T06:20:56;22.05;;;10.30;;
47860;SDS011;33620;52.340;5.984;2022-10-28T06:23:23;21.52;;;10.40;;
47860;SDS011;33620;52.340;5.984;2022-10-28T06:25:49;24.58;;;11.35;;
47860;SDS011;33620;52.340;5.984;2022-10-28T06:28:16;26.13;;;11.32;;
47860;SDS011;33620;52.340;5.984;2022-10-28T06:30:41;24.45;;;10.52;;
47860;SDS011;33620;52.340;5.984;2022-10-28T06:33:06;23.75;;;10.13;;
47860;SDS011;33620;52.340;5.984;2022-10-28T06:35:32;26.35;;;11.90;;
47860;SDS011;33620;52.340;5.984;2022-10-28T06:37:57;22.80;;;11.00;;
47860;SDS011;33620;52.340;5.984;2022-10-28T06:40:23;26.15;;;11.70;;
47860;SDS011;33620;52.340;5.984;2022-10-28T06:42:57;22.52;;;10.38;;
47860;SDS011;33620;52.340;5.984;2022-10-28T06:45:26;21.67;;;11.43;;
47860;SDS011;33620;52.340;5.984;2022-10-28T06:47:56;26.90;;;11.82;;
47860;SDS011;33620;52.340;5.984;2022-10-28T06:50:26;22.73;;;10.57;;
47860;SDS011;33620;52.340;5.984;2022-10-28T06:52:53;25.15;;;11.93;;
47860;SDS011;33620;52.340;5.984;2022-10-28T06:55:20;29.35;;;12.95;;
47860;SDS011;33620;52.340;5.984;2022-10-28T06:57:45;22.88;;;11.13;;
47860;SDS011;33620;52.340;5.984;2022-10-28T07:00:11;22.33;;;9.85;;
47860;SDS011;33620;52.340;5.984;2022-10-28T07:02:37;21.42;;;9.73;;
47860;SDS011;33620;52.340;5.984;2022-10-28T07:05:02;20.38;;;9.25;;
47860;SDS011;33620;52.340;5.984;2022-10-28T07:07:28;19.48;;;9.32;;
47860;SDS011;33620;52.340;5.984;2022-10-28T07:09:53;23.13;;;10.40;;
47860;SDS011;33620;52.340;5.984;2022-10-28T07:12:18;25.25;;;10.75;;
47860;SDS011;33620;52.340;5.984;2022-10-28T07:14:44;20.48;;;10.25;;
47860;SDS011;33620;52.340;5.984;2022-10-28T07:17:09;20.60;;;8.63;;
47860;SDS011;33620;52.340;5.984;2022-10-28T07:19:34;20.25;;;8.80;;
47860;SDS011;33620;52.340;5.984;2022-10-28T07:22:00;24.42;;;9.77;;
47860;SDS011;33620;52.340;5.984;2022-10-28T07:24:25;20.25;;;9.07;;
47860;SDS011;33620;52.340;5.984;2022-10-28T07:26:50;20.17;;;9.15;;
47860;SDS011;33620;52.340;5.984;2022-10-28T07:29:16;22.23;;;10.48;;
47860;SDS011;33620;52.340;5.984;2022-10-28T07:31:42;25.35;;;10.70;;
47860;SDS011;33620;52.340;5.984;2022-10-28T07:34:07;26.17;;;10.95;;
47860;SDS011;33620;52.340;5.984;2022-10-28T07:36:32;22.08;;;9.75;;
47860;SDS011;33620;52.340;5.984;2022-10-28T07:38:58;24.48;;;9.88;;
47860;SDS011;33620;52.340;5.984;2022-10-28T07:41:26;24.30;;;11.45;;
47860;SDS011;33620;52.340;5.984;2022-10-28T07:43:51;23.67;;;10.38;;
47860;SDS011;33620;52.340;5.984;2022-10-28T07:46:18;20.00;;;9.55;;
47860;SDS011;33620;52.340;5.984;2022-10-28T07:48:44;23.30;;;10.18;;
47860;SDS011;33620;52.340;5.984;2022-10-28T07:51:10;23.15;;;10.98;;
47860;SDS011;33620;52.340;5.984;2022-10-28T07:53:37;25.50;;;11.57;;
47860;SDS011;33620;52.340;5.984;2022-10-28T07:56:04;23.58;;;10.57;;
47860;SDS011;33620;52.340;5.984;2022-10-28T07:58:33;26.83;;;10.70;;
47860;SDS011;33620;52.340;5.984;2022-10-28T08:01:03;24.27;;;11.57;;
47860;SDS011;33620;52.340;5.984;2022-10-28T08:03:30;23.70;;;11.20;;
47860;SDS011;33620;52.340;5.984;2022-10-28T08:06:00;25.42;;;10.95;;
47860;SDS011;33620;52.340;5.984;2022-10-28T08:08:25;22.80;;;10.02;;
47860;SDS011;33620;52.340;5.984;2022-10-28T08:10:51;29.77;;;12.40;;
47860;SDS011;33620;52.340;5.984;2022-10-28T08:13:16;25.63;;;11.32;;
47860;SDS011;33620;52.340;5.984;2022-10-28T08:15:42;26.65;;;11.95;;
47860;SDS011;33620;52.340;5.984;2022-10-28T08:18:07;26.50;;;12.30;;
47860;SDS011;33620;52.340;5.984;2022-10-28T08:20:32;24.30;;;11.77;;
47860;SDS011;33620;52.340;5.984;2022-10-28T08:22:58;32.20;;;14.13;;
47860;SDS011;33620;52.340;5.984;2022-10-28T08:25:23;27.25;;;12.45;;
47860;SDS011;33620;52.340;5.984;2022-10-28T08:27:49;25.45;;;12.55;;
47860;SDS011;33620;52.340;5.984;2022-10-28T08:30:14;27.75;;;11.77;;
47860;SDS011;33620;52.340;5.984;2022-10-28T08:32:39;28.23;;;12.55;;
47860;SDS011;33620;52.340;5.984;2022-10-28T08:35:05;25.02;;;11.32;;
47860;SDS011;33620;52.340;5.984;2022-10-28T08:37:30;25.52;;;12.50;;
47860;SDS011;33620;52.340;5.984;2022-10-28T08:39:56;25.92;;;11.52;;
47860;SDS011;33620;52.340;5.984;2022-10-28T08:48:09;26.83;;;11.30;;
47860;SDS011;33620;52.340;5.984;2022-10-28T08:50:57;26.95;;;11.60;;
47860;SDS011;33620;52.340;5.984;2022-10-28T08:53:31;27.33;;;10.13;;
47860;SDS011;33620;52.340;5.984;2022-10-28T08:56:05;26.38;;;10.55;;
47860;SDS011;33620;52.340;5.984;2022-10-28T08:58:38;22.55;;;9.85;;
47860;SDS011;33620;52.340;5.984;2022-10-28T09:01:12;24.27;;;10.90;;
47860;SDS011;33620;52.340;5.984;2022-10-28T09:03:44;27.73;;;10.50;;
47860;SDS011;33620;52.340;5.984;2022-10-28T09:06:14;20.13;;;8.68;;
47860;SDS011;33620;52.340;5.984;2022-10-28T09:08:41;25.15;;;9.80;;
47860;SDS011;33620;52.340;5.984;2022-10-28T09:16:20;20.05;;;9.02;;
47860;SDS011;33620;52.340;5.984;2022-10-28T09:18:52;23.58;;;10.70;;
47860;SDS011;33620;52.340;5.984;2022-10-28T09:21:33;21.10;;;8.70;;
47860;SDS011;33620;52.340;5.984;2022-10-28T09:24:11;24.23;;;8.95;;
47860;SDS011;33620;52.340;5.984;2022-10-28T09:26:49;20.25;;;8.73;;
47860;SDS011;33620;52.340;5.984;2022-10-28T09:29:27;21.40;;;9.50;;
47860;SDS011;33620;52.340;5.984;2022-10-28T09:35:05;22.42;;;8.45;;
47860;SDS011;33620;52.340;5.984;2022-10-28T09:37:37;22.08;;;8.95;;
47860;SDS011;33620;52.340;5.984;2022-10-28T09:40:16;19.60;;;8.65;;
47860;SDS011;33620;52.340;5.984;2022-10-28T09:45:31;22.30;;;8.95;;
47860;SDS011;33620;52.340;5.984;2022-10-28T09:48:45;22.60;;;10.15;;
47860;SDS011;33620;52.340;5.984;2022-10-28T09:50:55;20.90;;;7.97;;
47860;SDS011;33620;52.340;5.984;2022-10-28T09:56:05;18.13;;;8.43;;
47860;SDS011;33620;52.340;5.984;2022-10-28T09:58:31;19.52;;;7.68;;
47860;SDS011;33620;52.340;5.984;2022-10-28T10:00:58;21.00;;;8.45;;
47860;SDS011;33620;52.340;5.984;2022-10-28T10:03:23;23.85;;;10.02;;
47860;SDS011;33620;52.340;5.984;2022-10-28T10:05:50;21.77;;;8.77;;
47860;SDS011;33620;52.340;5.984;2022-10-28T10:08:18;22.23;;;7.30;;
47860;SDS011;33620;52.340;5.984;2022-10-28T10:10:55;18.75;;;7.63;;
47860;SDS011;33620;52.340;5.984;2022-10-28T10:13:28;17.95;;;7.22;;
47860;SDS011;33620;52.340;5.984;2022-10-28T10:15:59;22.10;;;8.45;;
47860;SDS011;33620;52.340;5.984;2022-10-28T10:18:30;21.45;;;7.22;;
47860;SDS011;33620;52.340;5.984;2022-10-28T10:20:59;24.50;;;8.80;;
47860;SDS011;33620;52.340;5.984;2022-10-28T10:23:26;19.90;;;7.82;;
47860;SDS011;33620;52.340;5.984;2022-10-28T10:25:57;22.83;;;9.07;;
47860;SDS011;33620;52.340;5.984;2022-10-28T10:28:25;26.58;;;9.25;;
47860;SDS011;33620;52.340;5.984;2022-10-28T10:30:53;22.20;;;9.05;;
47860;SDS011;33620;52.340;5.984;2022-10-28T10:33:21;18.02;;;8.15;;
47860;SDS011;33620;52.340;5.984;2022-10-28T10:35:53;21.65;;;8.40;;
47860;SDS011;33620;52.340;5.984;2022-10-28T10:38:21;24.52;;;7.70;;
47860;SDS011;33620;52.340;5.984;2022-10-28T10:40:48;25.85;;;8.40;;
47860;SDS011;33620;52.340;5.984;2022-10-28T10:45:59;23.90;;;8.02;;
47860;SDS011;33620;52.340;5.984;2022-10-28T10:48:31;21.95;;;7.70;;
47860;SDS011;33620;52.340;5.984;2022-10-28T10:51:03;18.63;;;7.07;;
47860;SDS011;33620;52.340;5.984;2022-10-28T10:53:31;16.30;;;6.65;;
47860;SDS011;33620;52.340;5.984;2022-10-28T10:58:48;20.17;;;6.63;;
47860;SDS011;33620;52.340;5.984;2022-10-28T11:01:17;20.80;;;6.78;;
47860;SDS011;33620;52.340;5.984;2022-10-28T11:03:50;22.20;;;7.50;;
47860;SDS011;33620;52.340;5.984;2022-10-28T11:06:28;19.23;;;6.38;;
47860;SDS011;33620;52.340;5.984;2022-10-28T11:08:56;19.38;;;6.13;;
47860;SDS011;33620;52.340;5.984;2022-10-28T11:11:57;18.42;;;7.60;;
47860;SDS011;33620;52.340;5.984;2022-10-28T11:14:19;19.13;;;7.05;;
47860;SDS011;33620;52.340;5.984;2022-10-28T11:19:19;23.58;;;6.90;;
47860;SDS011;33620;52.340;5.984;2022-10-28T11:21:59;20.23;;;6.72;;
47860;SDS011;33620;52.340;5.984;2022-10-28T11:30:03;23.40;;;7.95;;
47860;SDS011;33620;52.340;5.984;2022-10-28T11:35:52;23.88;;;7.07;;
47860;SDS011;33620;52.340;5.984;2022-10-28T11:38:26;20.45;;;6.85;;
47860;SDS011;33620;52.340;5.984;2022-10-28T11:44:05;19.80;;;6.88;;
47860;SDS011;33620;52.340;5.984;2022-10-28T11:52:41;17.90;;;6.85;;
47860;SDS011;33620;52.340;5.984;2022-10-28T11:55:38;20.50;;;7.03;;
47860;SDS011;33620;52.340;5.984;2022-10-28T11:58:18;21.38;;;6.10;;
47860;SDS011;33620;52.340;5.984;2022-10-28T12:03:39;20.17;;;6.78;;
47860;SDS011;33620;52.340;5.984;2022-10-28T12:06:19;22.88;;;7.72;;
47860;SDS011;33620;52.340;5.984;2022-10-28T12:09:12;23.52;;;7.43;;
47860;SDS011;33620;52.340;5.984;2022-10-28T12:17:13;22.00;;;6.65;;
47860;SDS011;33620;52.340;5.984;2022-10-28T12:20:02;22.17;;;7.05;;
47860;SDS011;33620;52.340;5.984;2022-10-28T12:25:12;20.20;;;6.97;;
47860;SDS011;33620;52.340;5.984;2022-10-28T12:27:40;17.98;;;6.80;;
47860;SDS011;33620;52.340;5.984;2022-10-28T12:32:47;22.85;;;6.63;;
47860;SDS011;33620;52.340;5.984;2022-10-28T12:37:55;22.83;;;6.30;;
47860;SDS011;33620;52.340;5.984;2022-10-28T12:40:40;15.80;;;6.32;;
47860;SDS011;33620;52.340;5.984;2022-10-28T12:43:11;22.10;;;6.43;;
47860;SDS011;33620;52.340;5.984;2022-10-28T12:45:43;20.25;;;6.32;;
47860;SDS011;33620;52.340;5.984;2022-10-28T12:48:15;22.70;;;6.72;;
47860;SDS011;33620;52.340;5.984;2022-10-28T12:51:01;20.40;;;6.25;;
47860;SDS011;33620;52.340;5.984;2022-10-28T12:56:29;19.88;;;6.00;;
47860;SDS011;33620;52.340;5.984;2022-10-28T12:59:03;20.45;;;5.88;;
47860;SDS011;33620;52.340;5.984;2022-10-28T13:01:35;21.27;;;6.78;;
47860;SDS011;33620;52.340;5.984;2022-10-28T13:04:01;19.50;;;5.95;;
47860;SDS011;33620;52.340;5.984;2022-10-28T13:17:33;20.65;;;5.90;;
47860;SDS011;33620;52.340;5.984;2022-10-28T13:28:13;16.90;;;5.45;;
47860;SDS011;33620;52.340;5.984;2022-10-28T13:30:55;20.27;;;6.35;;
47860;SDS011;33620;52.340;5.984;2022-10-28T13:33:26;25.50;;;6.80;;
47860;SDS011;33620;52.340;5.984;2022-10-28T13:35:53;23.48;;;6.80;;
47860;SDS011;33620;52.340;5.984;2022-10-28T13:38:31;22.02;;;6.97;;
47860;SDS011;33620;52.340;5.984;2022-10-28T13:46:18;20.00;;;5.95;;
47860;SDS011;33620;52.340;5.984;2022-10-28T13:54:36;22.40;;;6.60;;
47860;SDS011;33620;52.340;5.984;2022-10-28T13:57:33;17.35;;;6.07;;
47860;SDS011;33620;52.340;5.984;2022-10-28T14:00:02;21.25;;;6.70;;
47860;SDS011;33620;52.340;5.984;2022-10-28T14:02:58;24.95;;;6.10;;
47860;SDS011;33620;52.340;5.984;2022-10-28T14:08:00;21.98;;;6.00;;
47860;SDS011;33620;52.340;5.984;2022-10-28T14:15:33;21.67;;;6.20;;
47860;SDS011;33620;52.340;5.984;2022-10-28T14:18:03;22.10;;;6.85;;
47860;SDS011;33620;52.340;5.984;2022-10-28T14:44:06;18.58;;;5.75;;
47860;SDS011;33620;52.340;5.984;2022-10-28T14:49:13;20.50;;;6.63;;
47860;SDS011;33620;52.340;5.984;2022-10-28T14:51:43;20.83;;;6.82;;
47860;SDS011;33620;52.340;5.984;2022-10-28T14:54:14;24.27;;;6.85;;
47860;SDS011;33620;52.340;5.984;2022-10-28T14:56:42;21.35;;;6.97;;
47860;SDS011;33620;52.340;5.984;2022-10-28T15:02:09;20.23;;;6.25;;
47860;SDS011;33620;52.340;5.984;2022-10-28T15:04:38;24.20;;;6.97;;
47860;SDS011;33620;52.340;5.984;2022-10-28T15:07:10;15.85;;;5.88;;
47860;SDS011;33620;52.340;5.984;2022-10-28T15:09:40;18.35;;;5.97;;
47860;SDS011;33620;52.340;5.984;2022-10-28T15:12:08;19.08;;;6.05;;
47860;SDS011;33620;52.340;5.984;2022-10-28T15:14:40;17.30;;;5.70;;
47860;SDS011;33620;52.340;5.984;2022-10-28T15:19:41;19.77;;;7.43;;
47860;SDS011;33620;52.340;5.984;2022-10-28T15:22:12;22.63;;;6.45;;
47860;SDS011;33620;52.340;5.984;2022-10-28T15:24:38;19.38;;;7.30;;
47860;SDS011;33620;52.340;5.984;2022-10-28T15:27:04;26.30;;;7.90;;
47860;SDS011;33620;52.340;5.984;2022-10-28T15:29:29;21.10;;;6.80;;
47860;SDS011;33620;52.340;5.984;2022-10-28T15:37:06;20.77;;;5.47;;
47860;SDS011;33620;52.340;5.984;2022-10-28T15:39:32;20.88;;;6.65;;
47860;SDS011;33620;52.340;5.984;2022-10-28T15:41:57;20.77;;;6.22;;
47860;SDS011;33620;52.340;5.984;2022-10-28T15:46:54;22.48;;;6.65;;
47860;SDS011;33620;52.340;5.984;2022-10-28T15:49:36;21.38;;;6.63;;
47860;SDS011;33620;52.340;5.984;2022-10-28T15:52:18;25.50;;;7.20;;
47860;SDS011;33620;52.340;5.984;2022-10-28T15:55:29;21.17;;;7.60;;
47860;SDS011;33620;52.340;5.984;2022-10-28T15:57:49;23.83;;;6.95;;
47860;SDS011;33620;52.340;5.984;2022-10-28T16:00:34;21.75;;;7.03;;
47860;SDS011;33620;52.340;5.984;2022-10-28T16:07:58;22.90;;;7.00;;
47860;SDS011;33620;52.340;5.984;2022-10-28T16:10:26;21.63;;;7.28;;
47860;SDS011;33620;52.340;5.984;2022-10-28T16:12:55;21.67;;;6.57;;
47860;SDS011;33620;52.340;5.984;2022-10-28T16:15:20;21.50;;;7.28;;
47860;SDS011;33620;52.340;5.984;2022-10-28T16:17:45;18.67;;;6.63;;
47860;SDS011;33620;52.340;5.984;2022-10-28T16:20:12;21.02;;;6.82;;
47860;SDS011;33620;52.340;5.984;2022-10-28T16:22:39;22.70;;;6.93;;
47860;SDS011;33620;52.340;5.984;2022-10-28T16:25:15;22.60;;;7.07;;
47860;SDS011;33620;52.340;5.984;2022-10-28T16:27:45;19.27;;;7.15;;
47860;SDS011;33620;52.340;5.984;2022-10-28T16:30:12;24.20;;;6.07;;
47860;SDS011;33620;52.340;5.984;2022-10-28T16:32:41;20.13;;;7.07;;
47860;SDS011;33620;52.340;5.984;2022-10-28T16:37:38;20.15;;;6.72;;
47860;SDS011;33620;52.340;5.984;2022-10-28T16:40:05;19.60;;;6.78;;
47860;SDS011;33620;52.340;5.984;2022-10-28T16:42:31;22.90;;;6.72;;
47860;SDS011;33620;52.340;5.984;2022-10-28T16:44:56;22.30;;;7.15;;
47860;SDS011;33620;52.340;5.984;2022-10-28T16:47:22;20.58;;;6.50;;
47860;SDS011;33620;52.340;5.984;2022-10-28T16:49:52;20.70;;;5.95;;
47860;SDS011;33620;52.340;5.984;2022-10-28T16:52:19;18.20;;;6.05;;
47860;SDS011;33620;52.340;5.984;2022-10-28T16:54:46;21.92;;;7.22;;
47860;SDS011;33620;52.340;5.984;2022-10-28T16:57:12;20.95;;;6.90;;
47860;SDS011;33620;52.340;5.984;2022-10-28T16:59:37;21.00;;;6.70;;
47860;SDS011;33620;52.340;5.984;2022-10-28T17:02:03;20.08;;;6.72;;
47860;SDS011;33620;52.340;5.984;2022-10-28T17:04:34;20.02;;;6.72;;
47860;SDS011;33620;52.340;5.984;2022-10-28T17:06:59;19.88;;;6.28;;
47860;SDS011;33620;52.340;5.984;2022-10-28T17:09:25;19.17;;;7.28;;
47860;SDS011;33620;52.340;5.984;2022-10-28T17:11:50;17.58;;;6.07;;
47860;SDS011;33620;52.340;5.984;2022-10-28T17:14:15;21.10;;;7.88;;
47860;SDS011;33620;52.340;5.984;2022-10-28T17:16:41;21.20;;;7.15;;
47860;SDS011;33620;52.340;5.984;2022-10-28T17:19:06;21.27;;;6.75;;
47860;SDS011;33620;52.340;5.984;2022-10-28T17:21:31;17.08;;;6.03;;
47860;SDS011;33620;52.340;5.984;2022-10-28T17:23:57;21.08;;;6.43;;
47860;SDS011;33620;52.340;5.984;2022-10-28T17:26:25;20.08;;;6.18;;
47860;SDS011;33620;52.340;5.984;2022-10-28T17:28:57;17.50;;;5.78;;
47860;SDS011;33620;52.340;5.984;2022-10-28T17:31:24;18.85;;;5.80;;
47860;SDS011;33620;52.340;5.984;2022-10-28T17:33:53;21.95;;;6.60;;
47860;SDS011;33620;52.340;5.984;2022-10-28T17:36:19;19.75;;;6.45;;
47860;SDS011;33620;52.340;5.984;2022-10-28T17:38:44;15.18;;;5.35;;
47860;SDS011;33620;52.340;5.984;2022-10-28T17:41:09;19.33;;;6.25;;
47860;SDS011;33620;52.340;5.984;2022-10-28T17:43:35;22.17;;;6.50;;
47860;SDS011;33620;52.340;5.984;2022-10-28T17:46:03;19.35;;;6.00;;